sensor_id;sensor_type;location;lat;lon;timestamp;temperature;humidity
24444;DHT22;13346;50.984;5.822;2023-04-03T00:00:41;1.30;99.90
24444;DHT22;13346;50.984;5.822;2023-04-03T00:03:09;1.20;99.90
24444;DHT22;13346;50.984;5.822;2023-04-03T00:05:36;1.20;99.90
24444;DHT22;13346;50.984;5.822;2023-04-03T00:08:04;1.00;99.90
24444;DHT22;13346;50.984;5.822;2023-04-03T00:10:33;1.10;99.90
24444;DHT22;13346;50.984;5.822;2023-04-03T00:13:01;1.10;99.90
24444;DHT22;13346;50.984;5.822;2023-04-03T00:15:28;1.10;99.90
24444;DHT22;13346;50.984;5.822;2023-04-03T00:17:55;1.10;99.90
24444;DHT22;13346;50.984;5.822;2023-04-03T00:20:24;1.00;99.90
24444;DHT22;13346;50.984;5.822;2023-04-03T00:22:51;0.80;99.90
24444;DHT22;13346;50.984;5.822;2023-04-03T00:25:18;0.90;99.90
24444;DHT22;13346;50.984;5.822;2023-04-03T00:27:46;1.00;99.90
24444;DHT22;13346;50.984;5.822;2023-04-03T00:30:15;0.80;99.90
24444;DHT22;13346;50.984;5.822;2023-04-03T00:32:42;0.80;99.90
24444;DHT22;13346;50.984;5.822;2023-04-03T00:35:10;0.80;99.90
24444;DHT22;13346;50.984;5.822;2023-04-03T00:37:38;0.80;99.90
24444;DHT22;13346;50.984;5.822;2023-04-03T00:40:07;0.80;99.90
24444;DHT22;13346;50.984;5.822;2023-04-03T00:42:36;0.70;99.90
24444;DHT22;13346;50.984;5.822;2023-04-03T00:45:29;0.90;99.90
24444;DHT22;13346;50.984;5.822;2023-04-03T00:47:58;0.80;99.90
24444;DHT22;13346;50.984;5.822;2023-04-03T00:50:27;0.90;99.90
24444;DHT22;13346;50.984;5.822;2023-04-03T00:52:57;0.80;99.90
24444;DHT22;13346;50.984;5.822;2023-04-03T00:55:25;0.80;99.90
24444;DHT22;13346;50.984;5.822;2023-04-03T00:57:53;0.80;99.90
24444;DHT22;13346;50.984;5.822;2023-04-03T01:00:22;1.00;99.90
24444;DHT22;13346;50.984;5.822;2023-04-03T01:02:50;1.00;99.90
24444;DHT22;13346;50.984;5.822;2023-04-03T01:05:20;0.90;99.90
24444;DHT22;13346;50.984;5.822;2023-04-03T01:07:49;0.80;99.90
24444;DHT22;13346;50.984;5.822;2023-04-03T01:10:19;0.80;99.90
24444;DHT22;13346;50.984;5.822;2023-04-03T01:12:48;0.80;99.90
24444;DHT22;13346;50.984;5.822;2023-04-03T01:15:18;0.80;99.90
24444;DHT22;13346;50.984;5.822;2023-04-03T01:17:48;0.70;99.90
24444;DHT22;13346;50.984;5.822;2023-04-03T01:23:48;0.50;99.90
24444;DHT22;13346;50.984;5.822;2023-04-03T01:26:19;0.40;99.90
24444;DHT22;13346;50.984;5.822;2023-04-03T01:28:47;0.20;99.90
24444;DHT22;13346;50.984;5.822;2023-04-03T01:31:19;0.20;99.90
24444;DHT22;13346;50.984;5.822;2023-04-03T01:33:49;0.20;99.90
24444;DHT22;13346;50.984;5.822;2023-04-03T01:36:18;0.10;99.90
24444;DHT22;13346;50.984;5.822;2023-04-03T01:38:46;0.20;99.90
24444;DHT22;13346;50.984;5.822;2023-04-03T01:41:13;0.10;99.90
24444;DHT22;13346;50.984;5.822;2023-04-03T01:43:41;0.10;99.90
24444;DHT22;13346;50.984;5.822;2023-04-03T01:46:08;0.10;99.90
24444;DHT22;13346;50.984;5.822;2023-04-03T01:48:35;0.10;99.90
24444;DHT22;13346;50.984;5.822;2023-04-03T01:51:04;0.20;99.90
24444;DHT22;13346;50.984;5.822;2023-04-03T01:53:31;0.10;99.90
24444;DHT22;13346;50.984;5.822;2023-04-03T01:55:59;0.10;99.90
24444;DHT22;13346;50.984;5.822;2023-04-03T01:58:26;0.10;99.90
24444;DHT22;13346;50.984;5.822;2023-04-03T02:00:53;0.00;99.90
24444;DHT22;13346;50.984;5.822;2023-04-03T02:03:21;-0.10;99.90
24444;DHT22;13346;50.984;5.822;2023-04-03T02:05:49;0.00;99.90
24444;DHT22;13346;50.984;5.822;2023-04-03T02:08:18;-0.10;99.90
24444;DHT22;13346;50.984;5.822;2023-04-03T02:10:47;-0.10;99.90
24444;DHT22;13346;50.984;5.822;2023-04-03T02:13:15;-0.10;99.90
24444;DHT22;13346;50.984;5.822;2023-04-03T02:15:42;-0.30;99.90
24444;DHT22;13346;50.984;5.822;2023-04-03T02:18:11;-0.30;99.90
24444;DHT22;13346;50.984;5.822;2023-04-03T02:20:38;-0.30;99.90
24444;DHT22;13346;50.984;5.822;2023-04-03T02:23:05;-0.20;99.90
24444;DHT22;13346;50.984;5.822;2023-04-03T02:25:34;-0.10;99.90
24444;DHT22;13346;50.984;5.822;2023-04-03T02:28:01;-0.20;99.90
24444;DHT22;13346;50.984;5.822;2023-04-03T02:30:28;-0.30;99.90
24444;DHT22;13346;50.984;5.822;2023-04-03T02:32:56;-0.40;99.90
24444;DHT22;13346;50.984;5.822;2023-04-03T02:35:23;-0.30;99.90
24444;DHT22;13346;50.984;5.822;2023-04-03T02:37:50;-0.30;99.90
24444;DHT22;13346;50.984;5.822;2023-04-03T02:40:17;-0.20;99.90
24444;DHT22;13346;50.984;5.822;2023-04-03T02:42:46;-0.20;99.90
24444;DHT22;13346;50.984;5.822;2023-04-03T02:45:13;-0.20;99.90
24444;DHT22;13346;50.984;5.822;2023-04-03T02:47:40;-0.20;99.90
24444;DHT22;13346;50.984;5.822;2023-04-03T02:50:08;-0.10;99.90
24444;DHT22;13346;50.984;5.822;2023-04-03T02:52:35;-0.10;99.90
24444;DHT22;13346;50.984;5.822;2023-04-03T02:55:03;-0.20;99.90
24444;DHT22;13346;50.984;5.822;2023-04-03T02:57:31;-0.20;99.90
24444;DHT22;13346;50.984;5.822;2023-04-03T02:59:59;0.00;99.90
24444;DHT22;13346;50.984;5.822;2023-04-03T03:02:26;0.00;99.90
24444;DHT22;13346;50.984;5.822;2023-04-03T03:04:54;0.00;99.90
24444;DHT22;13346;50.984;5.822;2023-04-03T03:07:21;0.00;99.90
24444;DHT22;13346;50.984;5.822;2023-04-03T03:09:48;0.00;99.90
24444;DHT22;13346;50.984;5.822;2023-04-03T03:12:15;0.00;99.90
24444;DHT22;13346;50.984;5.822;2023-04-03T03:14:47;0.00;99.90
24444;DHT22;13346;50.984;5.822;2023-04-03T03:17:16;0.00;99.90
24444;DHT22;13346;50.984;5.822;2023-04-03T03:19:43;0.00;99.90
24444;DHT22;13346;50.984;5.822;2023-04-03T03:22:11;-0.10;99.90
24444;DHT22;13346;50.984;5.822;2023-04-03T03:24:38;-0.10;99.90
24444;DHT22;13346;50.984;5.822;2023-04-03T03:27:05;-0.10;99.90
24444;DHT22;13346;50.984;5.822;2023-04-03T03:29:33;0.00;99.90
24444;DHT22;13346;50.984;5.822;2023-04-03T03:32:00;-0.30;99.90
24444;DHT22;13346;50.984;5.822;2023-04-03T03:34:28;-0.40;99.90
24444;DHT22;13346;50.984;5.822;2023-04-03T03:36:55;-0.20;99.90
24444;DHT22;13346;50.984;5.822;2023-04-03T03:39:22;-0.30;99.90
24444;DHT22;13346;50.984;5.822;2023-04-03T03:41:50;-0.20;99.90
24444;DHT22;13346;50.984;5.822;2023-04-03T03:44:19;-0.30;99.90
24444;DHT22;13346;50.984;5.822;2023-04-03T03:46:46;-0.40;99.90
24444;DHT22;13346;50.984;5.822;2023-04-03T03:49:13;-0.60;99.90
24444;DHT22;13346;50.984;5.822;2023-04-03T03:51:42;-0.60;99.90
24444;DHT22;13346;50.984;5.822;2023-04-03T03:54:09;-0.60;99.90
24444;DHT22;13346;50.984;5.822;2023-04-03T03:56:37;-0.60;99.90
24444;DHT22;13346;50.984;5.822;2023-04-03T03:59:04;-0.50;99.90
24444;DHT22;13346;50.984;5.822;2023-04-03T04:01:31;-0.40;99.90
24444;DHT22;13346;50.984;5.822;2023-04-03T04:03:59;-0.50;99.90
24444;DHT22;13346;50.984;5.822;2023-04-03T04:06:26;-0.60;99.90
24444;DHT22;13346;50.984;5.822;2023-04-03T04:08:54;-0.60;99.90
24444;DHT22;13346;50.984;5.822;2023-04-03T04:11:22;-0.50;99.90
24444;DHT22;13346;50.984;5.822;2023-04-03T04:13:49;-0.50;99.90
24444;DHT22;13346;50.984;5.822;2023-04-03T04:16:16;-0.50;99.90
24444;DHT22;13346;50.984;5.822;2023-04-03T04:18:43;-0.70;99.90
24444;DHT22;13346;50.984;5.822;2023-04-03T04:21:10;-0.70;99.90
24444;DHT22;13346;50.984;5.822;2023-04-03T04:23:37;-0.70;99.90
24444;DHT22;13346;50.984;5.822;2023-04-03T04:26:06;-0.70;99.90
24444;DHT22;13346;50.984;5.822;2023-04-03T04:28:33;-0.70;99.90
24444;DHT22;13346;50.984;5.822;2023-04-03T04:31:00;-0.70;99.90
24444;DHT22;13346;50.984;5.822;2023-04-03T04:33:27;-0.70;99.90
24444;DHT22;13346;50.984;5.822;2023-04-03T04:35:55;-0.70;99.90
24444;DHT22;13346;50.984;5.822;2023-04-03T04:38:22;-0.80;99.90
24444;DHT22;13346;50.984;5.822;2023-04-03T04:40:49;-0.70;99.90
24444;DHT22;13346;50.984;5.822;2023-04-03T04:43:17;-0.70;99.90
24444;DHT22;13346;50.984;5.822;2023-04-03T04:45:45;-0.60;99.90
24444;DHT22;13346;50.984;5.822;2023-04-03T04:48:12;-0.60;99.90
24444;DHT22;13346;50.984;5.822;2023-04-03T04:50:39;-0.60;99.90
24444;DHT22;13346;50.984;5.822;2023-04-03T04:53:06;-0.60;99.90
24444;DHT22;13346;50.984;5.822;2023-04-03T04:55:34;-0.30;99.90
24444;DHT22;13346;50.984;5.822;2023-04-03T04:58:01;-0.40;99.90
24444;DHT22;13346;50.984;5.822;2023-04-03T05:00:30;-0.60;99.90
24444;DHT22;13346;50.984;5.822;2023-04-03T05:02:57;-0.40;99.90
24444;DHT22;13346;50.984;5.822;2023-04-03T05:05:24;-0.50;99.90
24444;DHT22;13346;50.984;5.822;2023-04-03T05:07:51;-0.50;99.90
24444;DHT22;13346;50.984;5.822;2023-04-03T05:10:18;-0.70;99.90
24444;DHT22;13346;50.984;5.822;2023-04-03T05:12:46;-0.70;99.90
24444;DHT22;13346;50.984;5.822;2023-04-03T05:15:13;-0.60;99.90
24444;DHT22;13346;50.984;5.822;2023-04-03T05:17:42;-0.60;99.90
24444;DHT22;13346;50.984;5.822;2023-04-03T05:20:10;-0.70;99.90
24444;DHT22;13346;50.984;5.822;2023-04-03T05:22:37;-0.50;99.90
24444;DHT22;13346;50.984;5.822;2023-04-03T05:25:05;-0.20;99.90
24444;DHT22;13346;50.984;5.822;2023-04-03T05:27:33;-0.20;99.90
24444;DHT22;13346;50.984;5.822;2023-04-03T05:30:00;-0.10;99.90
24444;DHT22;13346;50.984;5.822;2023-04-03T05:32:27;0.00;99.90
24444;DHT22;13346;50.984;5.822;2023-04-03T05:34:55;0.10;99.90
24444;DHT22;13346;50.984;5.822;2023-04-03T05:37:22;0.10;99.90
24444;DHT22;13346;50.984;5.822;2023-04-03T05:39:50;0.10;99.90
24444;DHT22;13346;50.984;5.822;2023-04-03T05:42:17;0.10;99.90
24444;DHT22;13346;50.984;5.822;2023-04-03T05:44:44;0.40;99.90
24444;DHT22;13346;50.984;5.822;2023-04-03T05:47:12;0.80;99.90
24444;DHT22;13346;50.984;5.822;2023-04-03T05:49:40;1.00;99.90
24444;DHT22;13346;50.984;5.822;2023-04-03T05:52:16;1.20;99.90
24444;DHT22;13346;50.984;5.822;2023-04-03T05:54:44;1.30;99.90
24444;DHT22;13346;50.984;5.822;2023-04-03T05:57:14;1.40;99.90
24444;DHT22;13346;50.984;5.822;2023-04-03T05:59:42;1.30;99.90
24444;DHT22;13346;50.984;5.822;2023-04-03T06:02:11;1.60;99.90
24444;DHT22;13346;50.984;5.822;2023-04-03T06:04:38;1.70;99.90
24444;DHT22;13346;50.984;5.822;2023-04-03T06:07:05;1.60;99.90
24444;DHT22;13346;50.984;5.822;2023-04-03T06:09:34;1.90;99.90
24444;DHT22;13346;50.984;5.822;2023-04-03T06:12:02;1.90;99.90
24444;DHT22;13346;50.984;5.822;2023-04-03T06:14:29;2.00;99.90
24444;DHT22;13346;50.984;5.822;2023-04-03T06:16:56;2.10;99.90
24444;DHT22;13346;50.984;5.822;2023-04-03T06:19:24;2.10;99.90
24444;DHT22;13346;50.984;5.822;2023-04-03T06:21:51;2.30;99.90
24444;DHT22;13346;50.984;5.822;2023-04-03T06:24:19;2.30;99.90
24444;DHT22;13346;50.984;5.822;2023-04-03T06:26:49;2.20;99.90
24444;DHT22;13346;50.984;5.822;2023-04-03T06:29:18;2.30;99.90
24444;DHT22;13346;50.984;5.822;2023-04-03T06:31:46;2.40;99.90
24444;DHT22;13346;50.984;5.822;2023-04-03T06:34:14;2.60;99.90
24444;DHT22;13346;50.984;5.822;2023-04-03T06:36:43;2.80;99.90
24444;DHT22;13346;50.984;5.822;2023-04-03T06:39:13;2.70;99.90
24444;DHT22;13346;50.984;5.822;2023-04-03T06:41:41;2.80;99.90
24444;DHT22;13346;50.984;5.822;2023-04-03T06:44:09;3.00;99.90
24444;DHT22;13346;50.984;5.822;2023-04-03T06:46:39;2.90;99.90
24444;DHT22;13346;50.984;5.822;2023-04-03T06:49:06;2.90;99.90
24444;DHT22;13346;50.984;5.822;2023-04-03T06:51:34;3.00;99.90
24444;DHT22;13346;50.984;5.822;2023-04-03T06:54:03;3.00;99.90
24444;DHT22;13346;50.984;5.822;2023-04-03T06:56:30;2.90;99.90
24444;DHT22;13346;50.984;5.822;2023-04-03T06:58:57;3.10;99.90
24444;DHT22;13346;50.984;5.822;2023-04-03T07:01:28;3.20;99.90
24444;DHT22;13346;50.984;5.822;2023-04-03T07:03:57;3.20;99.90
24444;DHT22;13346;50.984;5.822;2023-04-03T07:06:25;3.30;99.90
24444;DHT22;13346;50.984;5.822;2023-04-03T07:08:54;3.10;99.90
24444;DHT22;13346;50.984;5.822;2023-04-03T07:11:21;3.20;99.90
24444;DHT22;13346;50.984;5.822;2023-04-03T07:13:48;3.50;99.90
24444;DHT22;13346;50.984;5.822;2023-04-03T07:16:16;3.70;99.90
24444;DHT22;13346;50.984;5.822;2023-04-03T07:18:45;3.60;99.90
24444;DHT22;13346;50.984;5.822;2023-04-03T07:21:13;3.90;99.90
24444;DHT22;13346;50.984;5.822;2023-04-03T07:23:40;3.70;99.90
24444;DHT22;13346;50.984;5.822;2023-04-03T07:26:07;3.60;99.90
24444;DHT22;13346;50.984;5.822;2023-04-03T07:28:35;3.50;99.90
24444;DHT22;13346;50.984;5.822;2023-04-03T07:31:04;3.90;99.90
24444;DHT22;13346;50.984;5.822;2023-04-03T07:33:34;3.80;99.90
24444;DHT22;13346;50.984;5.822;2023-04-03T07:36:04;3.80;99.90
24444;DHT22;13346;50.984;5.822;2023-04-03T07:38:33;4.00;99.90
24444;DHT22;13346;50.984;5.822;2023-04-03T07:41:01;4.10;99.90
24444;DHT22;13346;50.984;5.822;2023-04-03T07:43:28;4.10;99.90
24444;DHT22;13346;50.984;5.822;2023-04-03T07:45:55;4.10;99.90
24444;DHT22;13346;50.984;5.822;2023-04-03T07:48:24;3.90;99.90
24444;DHT22;13346;50.984;5.822;2023-04-03T07:50:52;4.00;99.90
24444;DHT22;13346;50.984;5.822;2023-04-03T07:53:20;4.20;99.90
24444;DHT22;13346;50.984;5.822;2023-04-03T07:55:48;4.00;99.90
24444;DHT22;13346;50.984;5.822;2023-04-03T07:58:18;4.30;99.90
24444;DHT22;13346;50.984;5.822;2023-04-03T08:00:46;4.30;99.90
24444;DHT22;13346;50.984;5.822;2023-04-03T08:03:13;4.30;99.90
24444;DHT22;13346;50.984;5.822;2023-04-03T08:05:43;4.40;99.90
24444;DHT22;13346;50.984;5.822;2023-04-03T08:08:13;4.60;99.90
24444;DHT22;13346;50.984;5.822;2023-04-03T08:10:42;4.40;99.90
24444;DHT22;13346;50.984;5.822;2023-04-03T08:13:10;4.40;99.90
24444;DHT22;13346;50.984;5.822;2023-04-03T08:15:37;4.20;99.90
24444;DHT22;13346;50.984;5.822;2023-04-03T08:18:04;4.30;99.90
24444;DHT22;13346;50.984;5.822;2023-04-03T08:20:31;4.40;99.90
24444;DHT22;13346;50.984;5.822;2023-04-03T08:22:58;4.40;99.90
24444;DHT22;13346;50.984;5.822;2023-04-03T08:25:26;4.70;99.90
24444;DHT22;13346;50.984;5.822;2023-04-03T08:27:56;4.70;99.90
24444;DHT22;13346;50.984;5.822;2023-04-03T08:30:23;4.70;99.90
24444;DHT22;13346;50.984;5.822;2023-04-03T08:32:50;5.10;99.90
24444;DHT22;13346;50.984;5.822;2023-04-03T08:35:18;4.90;99.90
24444;DHT22;13346;50.984;5.822;2023-04-03T08:37:46;4.80;99.90
24444;DHT22;13346;50.984;5.822;2023-04-03T08:40:15;5.00;99.90
24444;DHT22;13346;50.984;5.822;2023-04-03T08:42:50;5.10;99.90
24444;DHT22;13346;50.984;5.822;2023-04-03T08:45:27;5.20;99.90
24444;DHT22;13346;50.984;5.822;2023-04-03T08:48:03;5.20;99.90
24444;DHT22;13346;50.984;5.822;2023-04-03T08:50:37;5.20;99.90
24444;DHT22;13346;50.984;5.822;2023-04-03T08:53:11;5.30;99.90
24444;DHT22;13346;50.984;5.822;2023-04-03T08:55:42;5.60;99.90
24444;DHT22;13346;50.984;5.822;2023-04-03T08:58:12;5.60;99.90
24444;DHT22;13346;50.984;5.822;2023-04-03T09:00:45;5.30;99.90
24444;DHT22;13346;50.984;5.822;2023-04-03T09:03:14;5.50;99.90
24444;DHT22;13346;50.984;5.822;2023-04-03T09:05:47;5.70;99.90
24444;DHT22;13346;50.984;5.822;2023-04-03T09:08:22;5.90;99.90
24444;DHT22;13346;50.984;5.822;2023-04-03T09:10:52;5.80;99.90
24444;DHT22;13346;50.984;5.822;2023-04-03T09:13:30;6.10;99.90
24444;DHT22;13346;50.984;5.822;2023-04-03T09:16:02;6.20;99.90
24444;DHT22;13346;50.984;5.822;2023-04-03T09:18:36;6.40;99.90
24444;DHT22;13346;50.984;5.822;2023-04-03T09:21:12;6.40;99.90
24444;DHT22;13346;50.984;5.822;2023-04-03T09:23:44;6.60;99.90
24444;DHT22;13346;50.984;5.822;2023-04-03T09:26:16;6.40;99.90
24444;DHT22;13346;50.984;5.822;2023-04-03T09:28:45;6.60;99.90
24444;DHT22;13346;50.984;5.822;2023-04-03T09:31:20;6.30;99.90
24444;DHT22;13346;50.984;5.822;2023-04-03T09:33:50;6.60;99.90
24444;DHT22;13346;50.984;5.822;2023-04-03T09:36:39;6.60;99.90
24444;DHT22;13346;50.984;5.822;2023-04-03T09:39:11;6.30;99.90
24444;DHT22;13346;50.984;5.822;2023-04-03T09:41:39;6.60;99.90
24444;DHT22;13346;50.984;5.822;2023-04-03T09:44:20;6.70;99.90
24444;DHT22;13346;50.984;5.822;2023-04-03T09:46:49;7.00;99.90
24444;DHT22;13346;50.984;5.822;2023-04-03T09:49:17;6.40;99.90
24444;DHT22;13346;50.984;5.822;2023-04-03T09:51:45;6.60;99.90
24444;DHT22;13346;50.984;5.822;2023-04-03T09:54:30;7.10;99.90
24444;DHT22;13346;50.984;5.822;2023-04-03T09:57:01;7.00;99.90
24444;DHT22;13346;50.984;5.822;2023-04-03T09:59:31;7.30;93.70
24444;DHT22;13346;50.984;5.822;2023-04-03T10:02:02;7.30;90.30
24444;DHT22;13346;50.984;5.822;2023-04-03T10:04:40;7.30;99.90
24444;DHT22;13346;50.984;5.822;2023-04-03T10:07:29;7.30;99.90
24444;DHT22;13346;50.984;5.822;2023-04-03T10:09:57;7.00;99.90
24444;DHT22;13346;50.984;5.822;2023-04-03T10:12:25;7.50;99.90
24444;DHT22;13346;50.984;5.822;2023-04-03T10:14:57;7.60;99.20
24444;DHT22;13346;50.984;5.822;2023-04-03T10:17:35;7.30;95.20
24444;DHT22;13346;50.984;5.822;2023-04-03T10:20:10;7.40;96.90
24444;DHT22;13346;50.984;5.822;2023-04-03T10:22:44;7.70;99.90
24444;DHT22;13346;50.984;5.822;2023-04-03T10:25:20;7.60;99.90
24444;DHT22;13346;50.984;5.822;2023-04-03T10:27:55;7.60;99.80
24444;DHT22;13346;50.984;5.822;2023-04-03T10:30:34;7.50;99.90
24444;DHT22;13346;50.984;5.822;2023-04-03T10:33:18;7.70;99.90
24444;DHT22;13346;50.984;5.822;2023-04-03T10:35:56;7.80;66.90
24444;DHT22;13346;50.984;5.822;2023-04-03T10:38:33;8.00;99.90
24444;DHT22;13346;50.984;5.822;2023-04-03T10:41:08;8.30;92.70
24444;DHT22;13346;50.984;5.822;2023-04-03T10:43:43;8.10;37.90
24444;DHT22;13346;50.984;5.822;2023-04-03T10:46:13;7.90;36.20
24444;DHT22;13346;50.984;5.822;2023-04-03T10:48:57;8.30;67.60
24444;DHT22;13346;50.984;5.822;2023-04-03T10:51:35;8.00;49.20
24444;DHT22;13346;50.984;5.822;2023-04-03T10:54:08;8.40;36.00
24444;DHT22;13346;50.984;5.822;2023-04-03T10:56:41;8.30;52.50
24444;DHT22;13346;50.984;5.822;2023-04-03T10:59:21;8.90;40.90
24444;DHT22;13346;50.984;5.822;2023-04-03T11:01:53;8.30;66.50
24444;DHT22;13346;50.984;5.822;2023-04-03T11:04:25;8.30;40.30
24444;DHT22;13346;50.984;5.822;2023-04-03T11:06:57;8.40;32.90
24444;DHT22;13346;50.984;5.822;2023-04-03T11:09:28;8.60;30.00
24444;DHT22;13346;50.984;5.822;2023-04-03T11:12:01;9.20;10.90
24444;DHT22;13346;50.984;5.822;2023-04-03T11:14:32;8.40;63.30
24444;DHT22;13346;50.984;5.822;2023-04-03T11:17:11;8.40;76.10
24444;DHT22;13346;50.984;5.822;2023-04-03T11:19:47;9.10;38.90
24444;DHT22;13346;50.984;5.822;2023-04-03T11:22:22;9.40;73.40
24444;DHT22;13346;50.984;5.822;2023-04-03T11:24:57;9.20;24.80
24444;DHT22;13346;50.984;5.822;2023-04-03T11:27:27;8.70;37.00
24444;DHT22;13346;50.984;5.822;2023-04-03T11:29:59;9.70;17.70
24444;DHT22;13346;50.984;5.822;2023-04-03T11:32:41;9.00;96.40
24444;DHT22;13346;50.984;5.822;2023-04-03T11:35:13;9.30;21.20
24444;DHT22;13346;50.984;5.822;2023-04-03T11:37:44;8.90;36.80
24444;DHT22;13346;50.984;5.822;2023-04-03T11:40:21;9.50;40.60
24444;DHT22;13346;50.984;5.822;2023-04-03T11:42:52;9.50;97.90
24444;DHT22;13346;50.984;5.822;2023-04-03T11:45:31;10.10;26.00
24444;DHT22;13346;50.984;5.822;2023-04-03T11:48:02;9.60;18.60
24444;DHT22;13346;50.984;5.822;2023-04-03T11:50:42;10.20;79.10
24444;DHT22;13346;50.984;5.822;2023-04-03T11:53:34;9.30;92.40
24444;DHT22;13346;50.984;5.822;2023-04-03T11:56:31;9.00;39.40
24444;DHT22;13346;50.984;5.822;2023-04-03T11:59:21;9.50;28.50
24444;DHT22;13346;50.984;5.822;2023-04-03T12:01:49;9.50;35.10
24444;DHT22;13346;50.984;5.822;2023-04-03T12:04:18;9.60;15.60
24444;DHT22;13346;50.984;5.822;2023-04-03T12:07:15;9.80;83.80
24444;DHT22;13346;50.984;5.822;2023-04-03T12:10:14;9.40;44.20
24444;DHT22;13346;50.984;5.822;2023-04-03T12:12:56;9.70;32.60
24444;DHT22;13346;50.984;5.822;2023-04-03T12:21:20;9.70;27.40
24444;DHT22;13346;50.984;5.822;2023-04-03T12:24:02;9.50;26.20
24444;DHT22;13346;50.984;5.822;2023-04-03T12:26:34;10.00;53.20
24444;DHT22;13346;50.984;5.822;2023-04-03T12:29:14;10.10;4.30
24444;DHT22;13346;50.984;5.822;2023-04-03T12:31:53;10.50;5.90
24444;DHT22;13346;50.984;5.822;2023-04-03T12:34:42;10.00;1.00
24444;DHT22;13346;50.984;5.822;2023-04-03T12:37:27;10.00;10.10
24444;DHT22;13346;50.984;5.822;2023-04-03T12:40:10;9.90;12.90
24444;DHT22;13346;50.984;5.822;2023-04-03T12:46:03;9.40;99.90
24444;DHT22;13346;50.984;5.822;2023-04-03T12:48:34;10.10;25.00
24444;DHT22;13346;50.984;5.822;2023-04-03T12:51:04;9.10;68.70
24444;DHT22;13346;50.984;5.822;2023-04-03T12:53:33;9.60;45.60
24444;DHT22;13346;50.984;5.822;2023-04-03T12:56:21;9.30;43.50
24444;DHT22;13346;50.984;5.822;2023-04-03T12:58:50;9.10;49.30
24444;DHT22;13346;50.984;5.822;2023-04-03T13:01:20;9.70;45.50
24444;DHT22;13346;50.984;5.822;2023-04-03T13:03:50;9.70;46.20
24444;DHT22;13346;50.984;5.822;2023-04-03T13:06:21;9.90;54.00
24444;DHT22;13346;50.984;5.822;2023-04-03T13:08:50;9.80;11.70
24444;DHT22;13346;50.984;5.822;2023-04-03T13:11:20;9.50;19.50
24444;DHT22;13346;50.984;5.822;2023-04-03T13:13:56;9.70;16.70
24444;DHT22;13346;50.984;5.822;2023-04-03T13:16:23;9.70;35.10
24444;DHT22;13346;50.984;5.822;2023-04-03T13:18:51;9.50;20.90
24444;DHT22;13346;50.984;5.822;2023-04-03T13:21:20;9.80;13.50
24444;DHT22;13346;50.984;5.822;2023-04-03T13:23:51;9.90;17.60
24444;DHT22;13346;50.984;5.822;2023-04-03T13:26:21;9.90;57.10
24444;DHT22;13346;50.984;5.822;2023-04-03T13:28:49;10.40;11.50
24444;DHT22;13346;50.984;5.822;2023-04-03T13:31:21;10.80;17.50
24444;DHT22;13346;50.984;5.822;2023-04-03T13:33:56;9.60;7.00
24444;DHT22;13346;50.984;5.822;2023-04-03T13:36:26;9.60;15.80
24444;DHT22;13346;50.984;5.822;2023-04-03T13:39:06;9.80;16.00
24444;DHT22;13346;50.984;5.822;2023-04-03T13:41:36;10.00;17.00
24444;DHT22;13346;50.984;5.822;2023-04-03T13:44:28;9.80;22.00
24444;DHT22;13346;50.984;5.822;2023-04-03T13:46:58;10.10;31.50
24444;DHT22;13346;50.984;5.822;2023-04-03T13:49:33;10.30;21.80
24444;DHT22;13346;50.984;5.822;2023-04-03T13:52:17;10.00;18.50
24444;DHT22;13346;50.984;5.822;2023-04-03T13:54:51;9.90;25.80
24444;DHT22;13346;50.984;5.822;2023-04-03T13:57:21;10.00;32.20
24444;DHT22;13346;50.984;5.822;2023-04-03T13:59:48;10.10;15.70
24444;DHT22;13346;50.984;5.822;2023-04-03T14:02:21;10.00;64.90
24444;DHT22;13346;50.984;5.822;2023-04-03T14:04:53;10.30;22.40
24444;DHT22;13346;50.984;5.822;2023-04-03T14:07:24;10.00;9.80
24444;DHT22;13346;50.984;5.822;2023-04-03T14:09:52;10.20;15.60
24444;DHT22;13346;50.984;5.822;2023-04-03T14:12:25;10.40;4.50
24444;DHT22;13346;50.984;5.822;2023-04-03T14:14:53;10.40;1.00
24444;DHT22;13346;50.984;5.822;2023-04-03T14:17:23;10.60;2.60
24444;DHT22;13346;50.984;5.822;2023-04-03T14:19:53;10.50;1.00
24444;DHT22;13346;50.984;5.822;2023-04-03T14:22:22;9.80;1.00
24444;DHT22;13346;50.984;5.822;2023-04-03T14:24:50;10.50;1.00
24444;DHT22;13346;50.984;5.822;2023-04-03T14:27:22;10.70;1.00
24444;DHT22;13346;50.984;5.822;2023-04-03T14:29:51;10.30;1.00
24444;DHT22;13346;50.984;5.822;2023-04-03T14:32:21;10.70;1.00
24444;DHT22;13346;50.984;5.822;2023-04-03T14:34:49;10.70;1.00
24444;DHT22;13346;50.984;5.822;2023-04-03T14:37:21;10.20;1.00
24444;DHT22;13346;50.984;5.822;2023-04-03T14:39:50;10.60;1.00
24444;DHT22;13346;50.984;5.822;2023-04-03T14:42:22;10.80;1.00
24444;DHT22;13346;50.984;5.822;2023-04-03T14:44:50;10.70;1.00
24444;DHT22;13346;50.984;5.822;2023-04-03T14:47:21;10.90;1.00
24444;DHT22;13346;50.984;5.822;2023-04-03T14:49:48;10.80;1.00
24444;DHT22;13346;50.984;5.822;2023-04-03T14:52:19;11.10;1.00
24444;DHT22;13346;50.984;5.822;2023-04-03T14:54:47;11.20;1.00
24444;DHT22;13346;50.984;5.822;2023-04-03T14:57:16;10.90;1.00
24444;DHT22;13346;50.984;5.822;2023-04-03T14:59:45;11.10;1.00
24444;DHT22;13346;50.984;5.822;2023-04-03T15:02:27;10.80;1.00
24444;DHT22;13346;50.984;5.822;2023-04-03T15:04:55;10.40;1.00
24444;DHT22;13346;50.984;5.822;2023-04-03T15:07:24;10.80;1.00
24444;DHT22;13346;50.984;5.822;2023-04-03T15:09:52;10.60;1.00
24444;DHT22;13346;50.984;5.822;2023-04-03T15:12:22;10.70;1.00
24444;DHT22;13346;50.984;5.822;2023-04-03T15:14:50;10.40;1.00
24444;DHT22;13346;50.984;5.822;2023-04-03T15:17:21;10.10;1.00
24444;DHT22;13346;50.984;5.822;2023-04-03T15:19:49;10.20;1.00
24444;DHT22;13346;50.984;5.822;2023-04-03T15:22:18;10.40;1.00
24444;DHT22;13346;50.984;5.822;2023-04-03T15:24:46;10.40;1.00
24444;DHT22;13346;50.984;5.822;2023-04-03T15:27:13;10.40;1.00
24444;DHT22;13346;50.984;5.822;2023-04-03T15:29:42;10.10;1.00
24444;DHT22;13346;50.984;5.822;2023-04-03T15:32:12;10.30;5.60
24444;DHT22;13346;50.984;5.822;2023-04-03T15:34:39;10.10;1.00
24444;DHT22;13346;50.984;5.822;2023-04-03T15:37:06;10.40;1.00
24444;DHT22;13346;50.984;5.822;2023-04-03T15:39:34;10.30;1.00
24444;DHT22;13346;50.984;5.822;2023-04-03T15:42:01;10.20;1.00
24444;DHT22;13346;50.984;5.822;2023-04-03T15:44:32;10.10;1.00
24444;DHT22;13346;50.984;5.822;2023-04-03T15:47:01;9.80;22.10
24444;DHT22;13346;50.984;5.822;2023-04-03T15:49:30;9.90;3.30
24444;DHT22;13346;50.984;5.822;2023-04-03T15:51:57;9.90;13.60
24444;DHT22;13346;50.984;5.822;2023-04-03T15:54:25;9.50;8.80
24444;DHT22;13346;50.984;5.822;2023-04-03T15:56:52;9.40;46.50
24444;DHT22;13346;50.984;5.822;2023-04-03T15:59:19;9.70;12.60
24444;DHT22;13346;50.984;5.822;2023-04-03T16:01:47;9.70;9.40
24444;DHT22;13346;50.984;5.822;2023-04-03T16:04:15;9.70;14.90
24444;DHT22;13346;50.984;5.822;2023-04-03T16:06:44;9.80;14.50
24444;DHT22;13346;50.984;5.822;2023-04-03T16:09:11;9.80;15.90
24444;DHT22;13346;50.984;5.822;2023-04-03T16:11:39;9.80;14.70
24444;DHT22;13346;50.984;5.822;2023-04-03T16:14:06;9.80;10.30